sensor_id;sensor_type;location;lat;lon;timestamp;pressure;altitude;pressure_sealevel;temperature;humidity
63447;BME280;49577;49.872;6.190;2023-02-17T00:00:49;100251.84;;;8.09;87.54
63447;BME280;49577;49.872;6.190;2023-02-17T00:03:14;100249.39;;;8.09;87.63
63447;BME280;49577;49.872;6.190;2023-02-17T00:05:39;100245.70;;;8.10;87.68
63447;BME280;49577;49.872;6.190;2023-02-17T00:08:04;100242.71;;;8.10;87.56
63447;BME280;49577;49.872;6.190;2023-02-17T00:10:30;100239.92;;;8.10;87.92
63447;BME280;49577;49.872;6.190;2023-02-17T00:12:55;100241.18;;;8.10;87.98
63447;BME280;49577;49.872;6.190;2023-02-17T00:15:20;100241.52;;;8.10;88.05
63447;BME280;49577;49.872;6.190;2023-02-17T00:17:45;100242.75;;;8.10;88.00
63447;BME280;49577;49.872;6.190;2023-02-17T00:20:10;100239.82;;;8.09;88.04
63447;BME280;49577;49.872;6.190;2023-02-17T00:22:36;100245.91;;;8.09;88.07
63447;BME280;49577;49.872;6.190;2023-02-17T00:25:01;100236.73;;;8.08;88.33
63447;BME280;49577;49.872;6.190;2023-02-17T00:27:27;100239.67;;;8.08;88.52
63447;BME280;49577;49.872;6.190;2023-02-17T00:29:52;100238.48;;;8.07;88.71
63447;BME280;49577;49.872;6.190;2023-02-17T00:32:17;100234.45;;;8.08;88.58
63447;BME280;49577;49.872;6.190;2023-02-17T00:34:42;100231.23;;;8.06;88.65
63447;BME280;49577;49.872;6.190;2023-02-17T00:37:07;100233.80;;;8.07;88.69
63447;BME280;49577;49.872;6.190;2023-02-17T00:39:33;100228.08;;;8.07;88.74
63447;BME280;49577;49.872;6.190;2023-02-17T00:41:58;100226.50;;;8.07;88.75
63447;BME280;49577;49.872;6.190;2023-02-17T00:44:23;100219.34;;;8.07;88.74
63447;BME280;49577;49.872;6.190;2023-02-17T00:46:49;100216.60;;;8.07;88.84
63447;BME280;49577;49.872;6.190;2023-02-17T00:49:14;100213.27;;;8.07;88.91
63447;BME280;49577;49.872;6.190;2023-02-17T00:51:40;100212.61;;;8.06;88.93
63447;BME280;49577;49.872;6.190;2023-02-17T00:54:05;100220.44;;;8.06;88.96
63447;BME280;49577;49.872;6.190;2023-02-17T00:56:30;100222.52;;;8.07;89.04
63447;BME280;49577;49.872;6.190;2023-02-17T00:58:56;100223.03;;;8.07;89.04
63447;BME280;49577;49.872;6.190;2023-02-17T01:01:21;100226.48;;;8.07;88.97
63447;BME280;49577;49.872;6.190;2023-02-17T01:03:46;100227.18;;;8.07;89.08
63447;BME280;49577;49.872;6.190;2023-02-17T01:06:14;100230.13;;;8.07;89.22
63447;BME280;49577;49.872;6.190;2023-02-17T01:08:42;100223.85;;;8.07;89.18
63447;BME280;49577;49.872;6.190;2023-02-17T01:11:07;100221.95;;;8.08;89.28
63447;BME280;49577;49.872;6.190;2023-02-17T01:13:40;100223.32;;;8.08;89.24
63447;BME280;49577;49.872;6.190;2023-02-17T01:16:05;100224.89;;;8.08;89.27
63447;BME280;49577;49.872;6.190;2023-02-17T01:18:30;100226.80;;;8.08;89.26
63447;BME280;49577;49.872;6.190;2023-02-17T01:20:55;100227.84;;;8.08;89.33
63447;BME280;49577;49.872;6.190;2023-02-17T01:23:21;100223.83;;;8.09;89.49
63447;BME280;49577;49.872;6.190;2023-02-17T01:25:46;100226.79;;;8.09;89.48
63447;BME280;49577;49.872;6.190;2023-02-17T01:28:14;100228.86;;;8.09;89.60
63447;BME280;49577;49.872;6.190;2023-02-17T01:30:39;100226.25;;;8.09;89.59
63447;BME280;49577;49.872;6.190;2023-02-17T01:33:05;100223.26;;;8.10;89.62
63447;BME280;49577;49.872;6.190;2023-02-17T01:35:31;100219.77;;;8.10;89.61
63447;BME280;49577;49.872;6.190;2023-02-17T01:37:57;100218.77;;;8.09;89.74
63447;BME280;49577;49.872;6.190;2023-02-17T01:40:22;100216.84;;;8.09;89.74
63447;BME280;49577;49.872;6.190;2023-02-17T01:42:47;100206.23;;;8.09;89.78
63447;BME280;49577;49.872;6.190;2023-02-17T01:47:44;100200.69;;;8.09;89.95
63447;BME280;49577;49.872;6.190;2023-02-17T01:50:10;100201.03;;;8.09;89.95
63447;BME280;49577;49.872;6.190;2023-02-17T01:52:35;100200.31;;;8.09;90.03
63447;BME280;49577;49.872;6.190;2023-02-17T01:55:02;100193.90;;;8.09;90.10
63447;BME280;49577;49.872;6.190;2023-02-17T01:57:29;100195.83;;;8.09;90.04
63447;BME280;49577;49.872;6.190;2023-02-17T01:59:56;100190.23;;;8.09;90.14
63447;BME280;49577;49.872;6.190;2023-02-17T02:02:22;100188.50;;;8.09;90.15
63447;BME280;49577;49.872;6.190;2023-02-17T02:04:48;100187.13;;;8.08;90.18
63447;BME280;49577;49.872;6.190;2023-02-17T02:07:19;100181.91;;;8.08;90.33
63447;BME280;49577;49.872;6.190;2023-02-17T02:09:46;100173.91;;;8.08;90.35
63447;BME280;49577;49.872;6.190;2023-02-17T02:14:41;100163.68;;;8.07;90.52
63447;BME280;49577;49.872;6.190;2023-02-17T02:27:18;100139.42;;;8.05;91.02
63447;BME280;49577;49.872;6.190;2023-02-17T02:29:55;100133.83;;;8.06;91.18
63447;BME280;49577;49.872;6.190;2023-02-17T02:34:48;100127.52;;;8.07;91.43
63447;BME280;49577;49.872;6.190;2023-02-17T02:37:19;100127.91;;;8.06;91.50
63447;BME280;49577;49.872;6.190;2023-02-17T02:39:48;100126.65;;;8.07;91.70
63447;BME280;49577;49.872;6.190;2023-02-17T02:42:16;100126.84;;;8.06;91.77
63447;BME280;49577;49.872;6.190;2023-02-17T02:44:42;100122.79;;;8.07;91.88
63447;BME280;49577;49.872;6.190;2023-02-17T02:49:51;100125.77;;;8.11;91.91
63447;BME280;49577;49.872;6.190;2023-02-17T03:02:35;100120.19;;;8.15;92.05
63447;BME280;49577;49.872;6.190;2023-02-17T03:05:18;100120.14;;;8.16;91.98
63447;BME280;49577;49.872;6.190;2023-02-17T03:10:13;100120.15;;;8.16;92.01
63447;BME280;49577;49.872;6.190;2023-02-17T03:12:39;100121.05;;;8.15;92.16
63447;BME280;49577;49.872;6.190;2023-02-17T03:15:12;100122.59;;;8.16;92.14
63447;BME280;49577;49.872;6.190;2023-02-17T03:17:39;100122.02;;;8.17;92.21
63447;BME280;49577;49.872;6.190;2023-02-17T03:20:04;100119.91;;;8.18;92.25
63447;BME280;49577;49.872;6.190;2023-02-17T03:22:31;100121.96;;;8.19;92.15
63447;BME280;49577;49.872;6.190;2023-02-17T03:24:58;100123.46;;;8.20;92.29
63447;BME280;49577;49.872;6.190;2023-02-17T03:27:25;100123.11;;;8.20;92.30
63447;BME280;49577;49.872;6.190;2023-02-17T03:29:50;100124.67;;;8.20;92.27
63447;BME280;49577;49.872;6.190;2023-02-17T03:32:15;100124.15;;;8.20;92.29
63447;BME280;49577;49.872;6.190;2023-02-17T03:34:40;100126.24;;;8.20;92.39
63447;BME280;49577;49.872;6.190;2023-02-17T03:37:05;100126.59;;;8.20;92.63
63447;BME280;49577;49.872;6.190;2023-02-17T03:39:31;100126.39;;;8.21;92.58
63447;BME280;49577;49.872;6.190;2023-02-17T03:41:56;100120.10;;;8.21;92.59
63447;BME280;49577;49.872;6.190;2023-02-17T03:44:21;100124.31;;;8.20;92.66
63447;BME280;49577;49.872;6.190;2023-02-17T03:46:46;100127.90;;;8.22;92.85
63447;BME280;49577;49.872;6.190;2023-02-17T03:49:11;100122.29;;;8.23;92.83
63447;BME280;49577;49.872;6.190;2023-02-17T03:51:37;100127.63;;;8.24;92.94
63447;BME280;49577;49.872;6.190;2023-02-17T03:54:02;100132.98;;;8.24;92.96
63447;BME280;49577;49.872;6.190;2023-02-17T03:56:28;100132.25;;;8.25;92.93
63447;BME280;49577;49.872;6.190;2023-02-17T03:58:53;100132.06;;;8.26;92.86
63447;BME280;49577;49.872;6.190;2023-02-17T04:01:18;100130.79;;;8.27;92.96
63447;BME280;49577;49.872;6.190;2023-02-17T04:03:43;100133.52;;;8.28;92.94
63447;BME280;49577;49.872;6.190;2023-02-17T04:06:09;100127.53;;;8.30;92.96
63447;BME280;49577;49.872;6.190;2023-02-17T04:08:35;100127.17;;;8.30;92.93
63447;BME280;49577;49.872;6.190;2023-02-17T04:11:00;100131.28;;;8.32;93.08
63447;BME280;49577;49.872;6.190;2023-02-17T04:13:26;100129.11;;;8.33;93.10
63447;BME280;49577;49.872;6.190;2023-02-17T04:15:52;100132.89;;;8.34;93.01
63447;BME280;49577;49.872;6.190;2023-02-17T04:18:18;100134.38;;;8.37;93.01
63447;BME280;49577;49.872;6.190;2023-02-17T04:20:43;100133.49;;;8.38;92.96
63447;BME280;49577;49.872;6.190;2023-02-17T04:23:08;100133.10;;;8.38;93.07
63447;BME280;49577;49.872;6.190;2023-02-17T04:25:34;100133.66;;;8.38;92.95
63447;BME280;49577;49.872;6.190;2023-02-17T04:28:00;100143.36;;;8.39;92.92
63447;BME280;49577;49.872;6.190;2023-02-17T04:30:25;100141.38;;;8.41;92.82
63447;BME280;49577;49.872;6.190;2023-02-17T04:32:50;100138.12;;;8.43;92.80
63447;BME280;49577;49.872;6.190;2023-02-17T04:35:15;100138.64;;;8.43;92.73
63447;BME280;49577;49.872;6.190;2023-02-17T04:37:41;100145.56;;;8.44;92.72
63447;BME280;49577;49.872;6.190;2023-02-17T04:40:06;100148.51;;;8.44;92.68
63447;BME280;49577;49.872;6.190;2023-02-17T04:42:34;100150.02;;;8.46;92.64
63447;BME280;49577;49.872;6.190;2023-02-17T04:44:59;100152.08;;;8.46;92.43
63447;BME280;49577;49.872;6.190;2023-02-17T04:47:24;100156.90;;;8.47;92.39
63447;BME280;49577;49.872;6.190;2023-02-17T04:49:50;100150.05;;;8.49;92.27
63447;BME280;49577;49.872;6.190;2023-02-17T04:52:15;100146.39;;;8.49;92.22
63447;BME280;49577;49.872;6.190;2023-02-17T04:54:40;100140.89;;;8.51;92.14
63447;BME280;49577;49.872;6.190;2023-02-17T04:57:05;100130.05;;;8.52;92.11
63447;BME280;49577;49.872;6.190;2023-02-17T04:59:30;100125.64;;;8.53;91.98
63447;BME280;49577;49.872;6.190;2023-02-17T05:01:55;100123.58;;;8.56;91.85
63447;BME280;49577;49.872;6.190;2023-02-17T05:04:21;100121.94;;;8.58;91.78
63447;BME280;49577;49.872;6.190;2023-02-17T05:06:46;100129.14;;;8.60;91.62
63447;BME280;49577;49.872;6.190;2023-02-17T05:09:11;100128.68;;;8.63;91.47
63447;BME280;49577;49.872;6.190;2023-02-17T05:11:36;100122.33;;;8.64;91.29
63447;BME280;49577;49.872;6.190;2023-02-17T05:14:02;100121.59;;;8.65;91.13
63447;BME280;49577;49.872;6.190;2023-02-17T05:16:27;100120.86;;;8.66;91.11
63447;BME280;49577;49.872;6.190;2023-02-17T05:18:52;100116.56;;;8.68;91.21
63447;BME280;49577;49.872;6.190;2023-02-17T05:21:17;100116.98;;;8.71;91.01
63447;BME280;49577;49.872;6.190;2023-02-17T05:23:42;100119.13;;;8.73;90.91
63447;BME280;49577;49.872;6.190;2023-02-17T05:26:08;100112.09;;;8.75;90.87
63447;BME280;49577;49.872;6.190;2023-02-17T05:28:34;100118.98;;;8.76;90.79
63447;BME280;49577;49.872;6.190;2023-02-17T05:30:59;100125.20;;;8.77;90.72
63447;BME280;49577;49.872;6.190;2023-02-17T05:33:24;100126.13;;;8.80;90.78
63447;BME280;49577;49.872;6.190;2023-02-17T05:35:50;100132.13;;;8.82;90.69
63447;BME280;49577;49.872;6.190;2023-02-17T05:38:15;100135.72;;;8.83;90.56
63447;BME280;49577;49.872;6.190;2023-02-17T05:40:40;100136.42;;;8.83;90.51
63447;BME280;49577;49.872;6.190;2023-02-17T05:43:05;100141.11;;;8.83;90.59
63447;BME280;49577;49.872;6.190;2023-02-17T05:45:30;100149.63;;;8.84;90.47
63447;BME280;49577;49.872;6.190;2023-02-17T05:47:56;100150.99;;;8.84;90.43
63447;BME280;49577;49.872;6.190;2023-02-17T05:50:21;100156.17;;;8.85;90.50
63447;BME280;49577;49.872;6.190;2023-02-17T05:52:46;100152.64;;;8.87;90.71
63447;BME280;49577;49.872;6.190;2023-02-17T05:55:11;100149.81;;;8.88;90.49
63447;BME280;49577;49.872;6.190;2023-02-17T05:57:36;100153.75;;;8.90;90.36
63447;BME280;49577;49.872;6.190;2023-02-17T06:00:02;100152.45;;;8.91;90.41
63447;BME280;49577;49.872;6.190;2023-02-17T06:02:27;100150.52;;;8.91;90.30
63447;BME280;49577;49.872;6.190;2023-02-17T06:04:53;100153.94;;;8.93;90.18
63447;BME280;49577;49.872;6.190;2023-02-17T06:07:18;100155.64;;;8.93;90.19
63447;BME280;49577;49.872;6.190;2023-02-17T06:09:43;100156.31;;;8.94;90.09
63447;BME280;49577;49.872;6.190;2023-02-17T06:12:08;100164.50;;;8.94;90.12
63447;BME280;49577;49.872;6.190;2023-02-17T06:14:33;100167.23;;;8.95;90.09
63447;BME280;49577;49.872;6.190;2023-02-17T06:16:59;100166.66;;;8.96;90.06
63447;BME280;49577;49.872;6.190;2023-02-17T06:19:24;100162.77;;;8.98;90.05
63447;BME280;49577;49.872;6.190;2023-02-17T06:21:49;100161.84;;;8.99;89.99
63447;BME280;49577;49.872;6.190;2023-02-17T06:24:14;100161.45;;;9.00;89.88
63447;BME280;49577;49.872;6.190;2023-02-17T06:26:40;100160.75;;;9.00;89.96
63447;BME280;49577;49.872;6.190;2023-02-17T06:29:05;100167.19;;;9.00;89.86
63447;BME280;49577;49.872;6.190;2023-02-17T06:31:30;100167.70;;;9.00;89.87
63447;BME280;49577;49.872;6.190;2023-02-17T06:33:56;100164.17;;;9.01;89.87
63447;BME280;49577;49.872;6.190;2023-02-17T06:36:21;100173.63;;;9.04;89.81
63447;BME280;49577;49.872;6.190;2023-02-17T06:38:46;100170.55;;;9.06;89.73
63447;BME280;49577;49.872;6.190;2023-02-17T06:41:11;100167.05;;;9.06;89.72
63447;BME280;49577;49.872;6.190;2023-02-17T06:43:37;100168.90;;;9.08;89.69
63447;BME280;49577;49.872;6.190;2023-02-17T06:46:02;100164.65;;;9.09;89.63
63447;BME280;49577;49.872;6.190;2023-02-17T06:48:27;100161.81;;;9.10;89.53
63447;BME280;49577;49.872;6.190;2023-02-17T06:50:52;100158.25;;;9.12;89.47
63447;BME280;49577;49.872;6.190;2023-02-17T06:53:18;100161.22;;;9.11;89.42
63447;BME280;49577;49.872;6.190;2023-02-17T06:55:43;100164.88;;;9.11;89.42
63447;BME280;49577;49.872;6.190;2023-02-17T06:58:08;100160.36;;;9.11;89.63
63447;BME280;49577;49.872;6.190;2023-02-17T07:00:34;100159.48;;;9.11;89.47
63447;BME280;49577;49.872;6.190;2023-02-17T07:02:59;100165.38;;;9.13;89.44
63447;BME280;49577;49.872;6.190;2023-02-17T07:05:24;100172.52;;;9.12;89.54
63447;BME280;49577;49.872;6.190;2023-02-17T07:07:49;100176.19;;;9.12;89.55
63447;BME280;49577;49.872;6.190;2023-02-17T07:10:17;100176.70;;;9.12;89.57
63447;BME280;49577;49.872;6.190;2023-02-17T07:12:42;100184.70;;;9.13;89.62
63447;BME280;49577;49.872;6.190;2023-02-17T07:15:07;100191.14;;;9.13;89.79
63447;BME280;49577;49.872;6.190;2023-02-17T07:17:33;100191.80;;;9.13;89.76
63447;BME280;49577;49.872;6.190;2023-02-17T07:19:58;100196.49;;;9.14;89.80
63447;BME280;49577;49.872;6.190;2023-02-17T07:22:23;100195.40;;;9.15;89.88
63447;BME280;49577;49.872;6.190;2023-02-17T07:24:50;100197.52;;;9.14;90.00
63447;BME280;49577;49.872;6.190;2023-02-17T07:27:16;100197.41;;;9.13;90.35
63447;BME280;49577;49.872;6.190;2023-02-17T07:29:41;100199.90;;;9.12;90.57
63447;BME280;49577;49.872;6.190;2023-02-17T07:32:06;100200.65;;;9.10;90.60
63447;BME280;49577;49.872;6.190;2023-02-17T07:34:31;100208.15;;;9.10;90.65
63447;BME280;49577;49.872;6.190;2023-02-17T07:36:56;100216.88;;;9.10;90.77
63447;BME280;49577;49.872;6.190;2023-02-17T07:39:22;100218.98;;;9.10;90.83
63447;BME280;49577;49.872;6.190;2023-02-17T07:41:47;100221.59;;;9.10;90.87
63447;BME280;49577;49.872;6.190;2023-02-17T07:44:12;100221.05;;;9.10;90.90
63447;BME280;49577;49.872;6.190;2023-02-17T07:46:37;100223.66;;;9.10;90.95
63447;BME280;49577;49.872;6.190;2023-02-17T07:49:05;100221.55;;;9.11;91.02
63447;BME280;49577;49.872;6.190;2023-02-17T07:51:30;100220.42;;;9.13;91.17
63447;BME280;49577;49.872;6.190;2023-02-17T07:53:56;100215.09;;;9.15;91.41
63447;BME280;49577;49.872;6.190;2023-02-17T07:56:21;100215.80;;;9.15;91.44
63447;BME280;49577;49.872;6.190;2023-02-17T07:58:47;100212.98;;;9.15;91.43
63447;BME280;49577;49.872;6.190;2023-02-17T08:01:16;100215.20;;;9.16;91.43
63447;BME280;49577;49.872;6.190;2023-02-17T08:03:42;100216.17;;;9.18;91.47
63447;BME280;49577;49.872;6.190;2023-02-17T08:06:11;100211.23;;;9.19;91.50
63447;BME280;49577;49.872;6.190;2023-02-17T08:08:37;100211.38;;;9.20;91.59
63447;BME280;49577;49.872;6.190;2023-02-17T08:11:20;100210.59;;;9.22;91.55
63447;BME280;49577;49.872;6.190;2023-02-17T08:14:04;100215.35;;;9.24;91.48
63447;BME280;49577;49.872;6.190;2023-02-17T08:16:29;100213.98;;;9.27;91.57
63447;BME280;49577;49.872;6.190;2023-02-17T08:18:55;100216.78;;;9.31;91.59
63447;BME280;49577;49.872;6.190;2023-02-17T08:21:21;100214.66;;;9.35;91.52
63447;BME280;49577;49.872;6.190;2023-02-17T08:23:46;100223.81;;;9.41;91.45
63447;BME280;49577;49.872;6.190;2023-02-17T08:26:11;100222.17;;;9.42;91.28
63447;BME280;49577;49.872;6.190;2023-02-17T08:28:36;100225.09;;;9.43;91.25
63447;BME280;49577;49.872;6.190;2023-02-17T08:31:02;100227.63;;;9.45;91.23
63447;BME280;49577;49.872;6.190;2023-02-17T08:33:27;100225.75;;;9.47;91.23
63447;BME280;49577;49.872;6.190;2023-02-17T08:35:52;100229.90;;;9.52;91.16
63447;BME280;49577;49.872;6.190;2023-02-17T08:38:17;100229.39;;;9.55;90.97
63447;BME280;49577;49.872;6.190;2023-02-17T08:40:43;100228.92;;;9.57;90.92
63447;BME280;49577;49.872;6.190;2023-02-17T08:43:08;100229.55;;;9.58;90.85
63447;BME280;49577;49.872;6.190;2023-02-17T08:45:33;100228.96;;;9.60;90.76
63447;BME280;49577;49.872;6.190;2023-02-17T08:48:00;100229.48;;;9.60;90.72
63447;BME280;49577;49.872;6.190;2023-02-17T08:50:26;100229.63;;;9.61;90.66
63447;BME280;49577;49.872;6.190;2023-02-17T08:52:51;100230.23;;;9.63;90.70
63447;BME280;49577;49.872;6.190;2023-02-17T08:55:16;100237.48;;;9.64;90.72
63447;BME280;49577;49.872;6.190;2023-02-17T08:57:44;100236.21;;;9.65;90.71
63447;BME280;49577;49.872;6.190;2023-02-17T09:00:09;100245.11;;;9.69;90.60
63447;BME280;49577;49.872;6.190;2023-02-17T09:02:34;100245.34;;;9.71;90.58
63447;BME280;49577;49.872;6.190;2023-02-17T09:05:01;100252.02;;;9.74;90.52
63447;BME280;49577;49.872;6.190;2023-02-17T09:07:26;100251.71;;;9.76;90.48
63447;BME280;49577;49.872;6.190;2023-02-17T09:09:52;100248.65;;;9.78;90.40
63447;BME280;49577;49.872;6.190;2023-02-17T09:12:17;100256.51;;;9.82;90.40
63447;BME280;49577;49.872;6.190;2023-02-17T09:14:42;100259.96;;;9.86;90.41
63447;BME280;49577;49.872;6.190;2023-02-17T09:17:08;100258.44;;;9.92;90.43
63447;BME280;49577;49.872;6.190;2023-02-17T09:19:36;100261.77;;;9.96;90.31
63447;BME280;49577;49.872;6.190;2023-02-17T09:22:01;100262.45;;;9.99;90.13
63447;BME280;49577;49.872;6.190;2023-02-17T09:24:27;100263.42;;;10.01;90.12
63447;BME280;49577;49.872;6.190;2023-02-17T09:26:52;100267.70;;;10.02;90.12
63447;BME280;49577;49.872;6.190;2023-02-17T09:29:17;100268.17;;;10.03;89.98
63447;BME280;49577;49.872;6.190;2023-02-17T09:31:42;100271.27;;;10.04;89.82
63447;BME280;49577;49.872;6.190;2023-02-17T09:34:09;100272.15;;;10.04;89.79
63447;BME280;49577;49.872;6.190;2023-02-17T09:36:38;100276.70;;;10.04;89.88
63447;BME280;49577;49.872;6.190;2023-02-17T09:39:04;100272.92;;;10.06;89.81
63447;BME280;49577;49.872;6.190;2023-02-17T09:41:40;100269.66;;;10.08;89.80
63447;BME280;49577;49.872;6.190;2023-02-17T09:44:08;100269.61;;;10.12;89.72
63447;BME280;49577;49.872;6.190;2023-02-17T09:46:41;100274.20;;;10.16;89.71
63447;BME280;49577;49.872;6.190;2023-02-17T09:49:12;100275.86;;;10.17;89.55
63447;BME280;49577;49.872;6.190;2023-02-17T09:51:44;100276.55;;;10.17;89.48
63447;BME280;49577;49.872;6.190;2023-02-17T09:54:15;100275.49;;;10.18;89.44
63447;BME280;49577;49.872;6.190;2023-02-17T09:56:42;100274.73;;;10.19;89.44
63447;BME280;49577;49.872;6.190;2023-02-17T09:59:19;100276.91;;;10.20;89.44
63447;BME280;49577;49.872;6.190;2023-02-17T10:01:46;100272.99;;;10.22;89.41
63447;BME280;49577;49.872;6.190;2023-02-17T10:04:23;100275.55;;;10.23;89.24
63447;BME280;49577;49.872;6.190;2023-02-17T10:07:34;100270.35;;;10.26;89.15
63447;BME280;49577;49.872;6.190;2023-02-17T10:09:43;100271.90;;;10.30;89.18
63447;BME280;49577;49.872;6.190;2023-02-17T10:12:14;100272.61;;;10.37;89.06
63447;BME280;49577;49.872;6.190;2023-02-17T10:14:47;100270.04;;;10.43;88.93
63447;BME280;49577;49.872;6.190;2023-02-17T10:17:28;100270.48;;;10.51;88.83
63447;BME280;49577;49.872;6.190;2023-02-17T10:20:02;100274.20;;;10.57;88.63
63447;BME280;49577;49.872;6.190;2023-02-17T10:22:29;100275.14;;;10.62;88.41
63447;BME280;49577;49.872;6.190;2023-02-17T10:24:55;100279.86;;;10.69;88.24
63447;BME280;49577;49.872;6.190;2023-02-17T10:27:23;100286.96;;;10.73;88.03
63447;BME280;49577;49.872;6.190;2023-02-17T10:32:24;100290.45;;;10.80;87.82
63447;BME280;49577;49.872;6.190;2023-02-17T10:37:18;100293.41;;;10.87;87.79
63447;BME280;49577;49.872;6.190;2023-02-17T10:39:49;100293.42;;;10.91;87.45
63447;BME280;49577;49.872;6.190;2023-02-17T10:42:17;100285.42;;;10.90;87.38
63447;BME280;49577;49.872;6.190;2023-02-17T10:44:43;100282.00;;;10.92;87.45
63447;BME280;49577;49.872;6.190;2023-02-17T10:47:09;100284.84;;;10.94;87.45
63447;BME280;49577;49.872;6.190;2023-02-17T10:49:35;100290.48;;;10.97;87.34
63447;BME280;49577;49.872;6.190;2023-02-17T10:54:36;100292.23;;;11.06;87.20
63447;BME280;49577;49.872;6.190;2023-02-17T10:57:02;100285.81;;;11.11;86.86
63447;BME280;49577;49.872;6.190;2023-02-17T10:59:32;100285.95;;;11.12;86.72
63447;BME280;49577;49.872;6.190;2023-02-17T11:02:21;100290.23;;;11.13;86.87
63447;BME280;49577;49.872;6.190;2023-02-17T11:04:46;100287.35;;;11.22;86.75
63447;BME280;49577;49.872;6.190;2023-02-17T11:07:14;100285.84;;;11.27;86.61
63447;BME280;49577;49.872;6.190;2023-02-17T11:09:44;100282.13;;;11.28;86.67
63447;BME280;49577;49.872;6.190;2023-02-17T11:12:10;100282.05;;;11.32;86.53
63447;BME280;49577;49.872;6.190;2023-02-17T11:14:37;100271.43;;;11.41;86.32
63447;BME280;49577;49.872;6.190;2023-02-17T11:19:38;100265.84;;;11.62;85.64
63447;BME280;49577;49.872;6.190;2023-02-17T11:22:04;100260.41;;;11.69;85.06
63447;BME280;49577;49.872;6.190;2023-02-17T11:24:31;100261.55;;;11.73;85.09
63447;BME280;49577;49.872;6.190;2023-02-17T11:27:01;100258.36;;;11.77;84.88
63447;BME280;49577;49.872;6.190;2023-02-17T11:29:27;100258.56;;;11.83;84.93
63447;BME280;49577;49.872;6.190;2023-02-17T11:31:57;100255.48;;;11.88;84.20
63447;BME280;49577;49.872;6.190;2023-02-17T11:34:25;100258.31;;;11.87;84.15
63447;BME280;49577;49.872;6.190;2023-02-17T11:39:26;100252.50;;;11.97;83.93
63447;BME280;49577;49.872;6.190;2023-02-17T11:41:51;100252.75;;;12.05;83.80
63447;BME280;49577;49.872;6.190;2023-02-17T11:44:23;100252.21;;;12.14;83.46
63447;BME280;49577;49.872;6.190;2023-02-17T11:46:51;100251.02;;;12.25;83.53
63447;BME280;49577;49.872;6.190;2023-02-17T11:59:34;100250.52;;;12.31;82.49
63447;BME280;49577;49.872;6.190;2023-02-17T12:04:34;100250.06;;;12.27;81.98
63447;BME280;49577;49.872;6.190;2023-02-17T12:17:48;100259.27;;;12.08;82.28
63447;BME280;49577;49.872;6.190;2023-02-17T12:22:54;100261.15;;;12.05;82.58
63447;BME280;49577;49.872;6.190;2023-02-17T12:25:25;100263.93;;;12.03;82.59
63447;BME280;49577;49.872;6.190;2023-02-17T12:33:11;100264.38;;;11.98;82.87
63447;BME280;49577;49.872;6.190;2023-02-17T12:35:41;100264.12;;;12.03;82.84
63447;BME280;49577;49.872;6.190;2023-02-17T12:38:14;100256.44;;;12.08;82.80
63447;BME280;49577;49.872;6.190;2023-02-17T12:40:44;100248.41;;;12.16;82.64
63447;BME280;49577;49.872;6.190;2023-02-17T12:45:43;100246.02;;;12.24;82.16
63447;BME280;49577;49.872;6.190;2023-02-17T12:50:41;100248.13;;;12.27;81.91
63447;BME280;49577;49.872;6.190;2023-02-17T12:53:12;100245.33;;;12.27;81.84
63447;BME280;49577;49.872;6.190;2023-02-17T12:55:49;100241.88;;;12.26;81.92
63447;BME280;49577;49.872;6.190;2023-02-17T12:58:17;100241.66;;;12.30;81.95
63447;BME280;49577;49.872;6.190;2023-02-17T13:00:51;100242.38;;;12.29;81.92
63447;BME280;49577;49.872;6.190;2023-02-17T13:03:18;100244.94;;;12.27;82.00
63447;BME280;49577;49.872;6.190;2023-02-17T13:05:47;100243.34;;;12.25;82.06
63447;BME280;49577;49.872;6.190;2023-02-17T13:08:20;100237.35;;;12.23;82.06
63447;BME280;49577;49.872;6.190;2023-02-17T13:10:57;100225.77;;;12.20;82.10
63447;BME280;49577;49.872;6.190;2023-02-17T13:13:30;100223.20;;;12.19;82.39
63447;BME280;49577;49.872;6.190;2023-02-17T13:16:07;100222.23;;;12.18;82.39
63447;BME280;49577;49.872;6.190;2023-02-17T13:18:35;100219.84;;;12.14;82.51
63447;BME280;49577;49.872;6.190;2023-02-17T13:26:28;100222.34;;;11.98;82.95
63447;BME280;49577;49.872;6.190;2023-02-17T13:29:06;100217.20;;;11.96;83.22
63447;BME280;49577;49.872;6.190;2023-02-17T13:31:42;100214.55;;;11.94;83.35
63447;BME280;49577;49.872;6.190;2023-02-17T13:34:08;100210.86;;;11.91;83.40
63447;BME280;49577;49.872;6.190;2023-02-17T13:36:35;100213.30;;;11.87;83.52
63447;BME280;49577;49.872;6.190;2023-02-17T13:39:02;100205.26;;;11.85;83.68
63447;BME280;49577;49.872;6.190;2023-02-17T13:41:31;100202.39;;;11.80;83.57
63447;BME280;49577;49.872;6.190;2023-02-17T13:43:57;100194.91;;;11.76;83.79
63447;BME280;49577;49.872;6.190;2023-02-17T13:46:23;100191.68;;;11.74;83.92
63447;BME280;49577;49.872;6.190;2023-02-17T13:49:24;100198.41;;;11.72;84.08
63447;BME280;49577;49.872;6.190;2023-02-17T13:51:41;100192.84;;;11.69;84.23
63447;BME280;49577;49.872;6.190;2023-02-17T13:54:07;100186.34;;;11.67;84.41
63447;BME280;49577;49.872;6.190;2023-02-17T13:56:32;100189.57;;;11.66;84.53
63447;BME280;49577;49.872;6.190;2023-02-17T13:59:12;100185.77;;;11.64;84.69
63447;BME280;49577;49.872;6.190;2023-02-17T14:01:41;100185.71;;;11.62;84.84
63447;BME280;49577;49.872;6.190;2023-02-17T14:04:15;100186.65;;;11.61;84.91
63447;BME280;49577;49.872;6.190;2023-02-17T14:06:41;100188.31;;;11.59;84.98
63447;BME280;49577;49.872;6.190;2023-02-17T14:09:10;100185.26;;;11.58;85.00
63447;BME280;49577;49.872;6.190;2023-02-17T14:11:36;100194.74;;;11.58;85.12
63447;BME280;49577;49.872;6.190;2023-02-17T14:14:01;100194.52;;;11.58;85.24
63447;BME280;49577;49.872;6.190;2023-02-17T14:16:32;100204.46;;;11.59;85.24
63447;BME280;49577;49.872;6.190;2023-02-17T14:21:25;100203.75;;;11.59;85.34
63447;BME280;49577;49.872;6.190;2023-02-17T14:23:52;100201.11;;;11.56;85.32
63447;BME280;49577;49.872;6.190;2023-02-17T14:26:28;100203.71;;;11.54;85.58